createdAt,value
2018-12-31T00:00:08.864Z,1017.34
2018-12-31T00:01:07.988Z,1017.29
2018-12-31T00:02:08.005Z,1017.24
2018-12-31T00:03:07.950Z,1017.26
2018-12-31T00:04:07.933Z,1017.28
2018-12-31T00:05:07.962Z,1017.28
2018-12-31T00:06:07.921Z,1017.28
2018-12-31T00:07:07.905Z,1017.25
2018-12-31T00:08:07.931Z,1017.26
2018-12-31T00:09:07.953Z,1017.26
2018-12-31T00:10:07.856Z,1017.22
2018-12-31T00:11:07.870Z,1017.22
2018-12-31T00:12:07.870Z,1017.18
2018-12-31T00:13:07.840Z,1017.22
2018-12-31T00:14:07.835Z,1017.21
2018-12-31T00:15:07.853Z,1017.16
2018-12-31T00:16:07.874Z,1017.19
2018-12-31T00:17:07.808Z,1017.21
2018-12-31T00:18:07.815Z,1017.18
2018-12-31T00:19:07.902Z,1017.16
2018-12-31T00:20:07.800Z,1017.18
2018-12-31T00:21:07.791Z,1017.18
2018-12-31T00:22:07.750Z,1017.16
2018-12-31T00:23:07.743Z,1017.20
2018-12-31T00:24:07.715Z,1017.22
2018-12-31T00:25:07.761Z,1017.22
2018-12-31T00:26:07.697Z,1017.21
2018-12-31T00:27:07.682Z,1017.23
2018-12-31T00:28:07.679Z,1017.25
2018-12-31T00:29:07.656Z,1017.26
2018-12-31T00:30:07.651Z,1017.28
2018-12-31T00:31:07.680Z,1017.24
2018-12-31T00:32:07.642Z,1017.26
2018-12-31T00:33:07.657Z,1017.32
2018-12-31T00:34:07.597Z,1017.29
2018-12-31T00:35:07.609Z,1017.29
2018-12-31T00:36:07.617Z,1017.31
2018-12-31T00:37:07.585Z,1017.35
2018-12-31T00:38:07.568Z,1017.30
2018-12-31T00:39:07.565Z,1017.35
2018-12-31T00:40:07.557Z,1017.36
2018-12-31T00:41:07.539Z,1017.34
2018-12-31T00:42:07.559Z,1017.39
2018-12-31T00:43:07.563Z,1017.40
2018-12-31T00:44:07.513Z,1017.39
2018-12-31T00:45:07.482Z,1017.36
2018-12-31T00:46:07.475Z,1017.37
2018-12-31T00:47:07.469Z,1017.35
2018-12-31T00:48:07.485Z,1017.40
2018-12-31T00:49:07.449Z,1017.46
2018-12-31T00:50:07.451Z,1017.41
2018-12-31T00:51:07.417Z,1017.43
2018-12-31T00:52:07.398Z,1017.47
2018-12-31T00:53:07.404Z,1017.40
2018-12-31T00:54:07.392Z,1017.47
2018-12-31T00:55:07.418Z,1017.53
2018-12-31T00:56:07.366Z,1017.49
2018-12-31T00:57:07.379Z,1017.48
2018-12-31T00:58:07.344Z,1017.46
2018-12-31T00:59:07.322Z,1017.54
2018-12-31T01:00:07.348Z,1017.50
2018-12-31T01:01:07.307Z,1017.53
2018-12-31T01:02:07.304Z,1017.54
2018-12-31T01:03:07.274Z,1017.51
2018-12-31T01:04:07.267Z,1017.50
2018-12-31T01:05:07.293Z,1017.44
2018-12-31T01:06:07.272Z,1017.52
2018-12-31T01:07:07.240Z,1017.42
2018-12-31T01:08:07.239Z,1017.48
2018-12-31T01:09:07.235Z,1017.46
2018-12-31T01:10:07.226Z,1017.43
2018-12-31T01:11:07.227Z,1017.43
2018-12-31T01:12:07.207Z,1017.45
2018-12-31T01:13:07.176Z,1017.42
2018-12-31T01:14:07.206Z,1017.44
2018-12-31T01:15:07.168Z,1017.45
2018-12-31T01:16:07.183Z,1017.42
2018-12-31T01:17:07.162Z,1017.41
2018-12-31T01:18:07.133Z,1017.48
2018-12-31T01:19:07.147Z,1017.47
2018-12-31T01:20:07.116Z,1017.42
2018-12-31T01:21:07.110Z,1017.47
2018-12-31T01:22:07.094Z,1017.45
2018-12-31T01:23:07.069Z,1017.44
2018-12-31T01:24:07.089Z,1017.43
2018-12-31T01:25:07.068Z,1017.42
2018-12-31T01:26:07.045Z,1017.40
2018-12-31T01:27:07.021Z,1017.47
2018-12-31T01:28:07.040Z,1017.45
2018-12-31T01:29:07.001Z,1017.48
2018-12-31T01:30:07.033Z,1017.45
2018-12-31T01:31:07.009Z,1017.43
2018-12-31T01:32:06.961Z,1017.41
2018-12-31T01:33:06.971Z,1017.44
2018-12-31T01:34:06.974Z,1017.39
2018-12-31T01:35:06.951Z,1017.43
2018-12-31T01:36:06.933Z,1017.40
2018-12-31T01:37:06.941Z,1017.39
2018-12-31T01:38:06.953Z,1017.44
2018-12-31T01:39:06.891Z,1017.48
2018-12-31T01:40:06.894Z,1017.43
2018-12-31T01:41:06.957Z,1017.41
2018-12-31T01:42:06.865Z,1017.44
2018-12-31T01:43:06.884Z,1017.44
2018-12-31T01:44:06.826Z,1017.49
2018-12-31T01:45:06.832Z,1017.43
2018-12-31T01:46:06.856Z,1017.44
2018-12-31T01:47:06.798Z,1017.45
2018-12-31T01:48:06.864Z,1017.42
2018-12-31T01:49:06.785Z,1017.45
2018-12-31T01:50:06.766Z,1017.43
2018-12-31T01:51:11.351Z,1017.45
2018-12-31T01:52:06.771Z,1017.45
2018-12-31T01:53:06.731Z,1017.44
2018-12-31T01:54:06.736Z,1017.49
2018-12-31T01:55:06.722Z,1017.44
2018-12-31T01:56:06.719Z,1017.50
2018-12-31T01:57:06.727Z,1017.47
2018-12-31T01:58:06.684Z,1017.46
2018-12-31T01:59:06.742Z,1017.48
2018-12-31T02:00:06.677Z,1017.50
2018-12-31T02:01:06.697Z,1017.48
2018-12-31T02:02:06.652Z,1017.46
2018-12-31T02:03:06.647Z,1017.45
2018-12-31T02:04:06.790Z,1017.49
2018-12-31T02:05:06.604Z,1017.41
2018-12-31T02:06:06.613Z,1017.43
2018-12-31T02:07:06.611Z,1017.49
2018-12-31T02:08:06.591Z,1017.48
2018-12-31T02:09:06.578Z,1017.44
2018-12-31T02:10:06.545Z,1017.43
2018-12-31T02:11:06.543Z,1017.51
2018-12-31T02:12:06.540Z,1017.49
2018-12-31T02:13:06.531Z,1017.52
2018-12-31T02:14:06.791Z,1017.50
2018-12-31T02:15:06.496Z,1017.52
2018-12-31T02:16:06.527Z,1017.52
2018-12-31T02:17:06.505Z,1017.49
2018-12-31T02:18:06.461Z,1017.51
2018-12-31T02:19:06.478Z,1017.50
2018-12-31T02:20:06.461Z,1017.47
2018-12-31T02:21:06.429Z,1017.48
2018-12-31T02:22:06.426Z,1017.46
2018-12-31T02:23:06.409Z,1017.48
2018-12-31T02:24:06.431Z,1017.51
2018-12-31T02:25:06.432Z,1017.46
2018-12-31T02:26:06.418Z,1017.48
2018-12-31T02:27:06.447Z,1017.45
2018-12-31T02:28:06.362Z,1017.46
2018-12-31T02:29:06.399Z,1017.42
2018-12-31T02:30:06.369Z,1017.49
2018-12-31T02:31:06.324Z,1017.50
2018-12-31T02:32:06.320Z,1017.53
2018-12-31T02:33:06.344Z,1017.50
2018-12-31T02:34:06.323Z,1017.52
2018-12-31T02:35:06.283Z,1017.56
2018-12-31T02:36:06.295Z,1017.52
2018-12-31T02:37:06.285Z,1017.56
2018-12-31T02:38:06.267Z,1017.61
2018-12-31T02:39:06.241Z,1017.62
2018-12-31T02:40:06.250Z,1017.61
2018-12-31T02:41:06.220Z,1017.61
2018-12-31T02:42:06.249Z,1017.63
2018-12-31T02:43:06.209Z,1017.65
2018-12-31T02:44:06.239Z,1017.67
2018-12-31T02:45:06.194Z,1017.66
2018-12-31T02:46:06.161Z,1017.67
2018-12-31T02:47:06.236Z,1017.71
2018-12-31T02:48:06.168Z,1017.68
2018-12-31T02:49:06.165Z,1017.72
2018-12-31T02:50:06.253Z,1017.69
2018-12-31T02:51:06.129Z,1017.68
2018-12-31T02:52:06.092Z,1017.67
2018-12-31T02:53:06.121Z,1017.70
2018-12-31T02:54:06.087Z,1017.70
2018-12-31T02:55:06.092Z,1017.67
2018-12-31T02:56:06.043Z,1017.66
2018-12-31T02:57:06.061Z,1017.66
2018-12-31T02:58:06.034Z,1017.64
2018-12-31T02:59:06.063Z,1017.62
2018-12-31T03:00:06.089Z,1017.58
2018-12-31T03:01:05.992Z,1017.57
2018-12-31T03:02:06.012Z,1017.58
2018-12-31T03:03:05.971Z,1017.58
2018-12-31T03:04:06.001Z,1017.57
2018-12-31T03:05:05.954Z,1017.52
2018-12-31T03:06:05.996Z,1017.57
2018-12-31T03:07:06.052Z,1017.59
2018-12-31T03:08:05.925Z,1017.57
2018-12-31T03:09:05.926Z,1017.53
2018-12-31T03:10:05.946Z,1017.53
2018-12-31T03:11:05.903Z,1017.54
2018-12-31T03:12:05.862Z,1017.52
2018-12-31T03:13:05.934Z,1017.49
2018-12-31T03:14:05.856Z,1017.48
2018-12-31T03:15:05.838Z,1017.46
2018-12-31T03:16:05.860Z,1017.44
2018-12-31T03:17:05.839Z,1017.42
2018-12-31T03:18:05.803Z,1017.36
2018-12-31T03:19:05.873Z,1017.42
2018-12-31T03:20:05.786Z,1017.41
2018-12-31T03:21:05.767Z,1017.37
2018-12-31T03:22:05.771Z,1017.35
2018-12-31T03:23:05.773Z,1017.35
2018-12-31T03:24:05.738Z,1017.36
2018-12-31T03:25:05.763Z,1017.34
2018-12-31T03:26:05.730Z,1017.35
2018-12-31T03:27:05.727Z,1017.34
2018-12-31T03:28:05.716Z,1017.33
2018-12-31T03:29:05.709Z,1017.30
2018-12-31T03:30:05.722Z,1017.27
2018-12-31T03:31:05.680Z,1017.27
2018-12-31T03:32:05.697Z,1017.24
2018-12-31T03:33:05.668Z,1017.18
2018-12-31T03:34:05.637Z,1017.19
2018-12-31T03:35:05.632Z,1017.17
2018-12-31T03:36:05.647Z,1017.18
2018-12-31T03:37:05.609Z,1017.17
2018-12-31T03:38:05.630Z,1017.13
2018-12-31T03:39:05.570Z,1017.20
2018-12-31T03:40:05.561Z,1017.21
2018-12-31T03:41:05.582Z,1017.15
2018-12-31T03:42:05.555Z,1017.22
2018-12-31T03:43:05.560Z,1017.22
2018-12-31T03:44:05.557Z,1017.18
2018-12-31T03:45:05.556Z,1017.20
2018-12-31T03:46:05.534Z,1017.23
2018-12-31T03:47:05.512Z,1017.23
2018-12-31T03:48:05.528Z,1017.23
2018-12-31T03:49:05.483Z,1017.24
2018-12-31T03:50:05.494Z,1017.24
2018-12-31T03:51:05.478Z,1017.27
2018-12-31T03:52:05.442Z,1017.25
2018-12-31T03:53:05.457Z,1017.25
2018-12-31T03:54:05.424Z,1017.26
2018-12-31T03:55:05.426Z,1017.24
2018-12-31T03:56:05.464Z,1017.25
2018-12-31T03:57:05.384Z,1017.25
2018-12-31T03:58:05.381Z,1017.26
2018-12-31T03:59:05.359Z,1017.23
2018-12-31T04:00:05.351Z,1017.26
2018-12-31T04:01:05.425Z,1017.28
2018-12-31T04:02:05.352Z,1017.31
2018-12-31T04:03:05.315Z,1017.29
2018-12-31T04:04:05.293Z,1017.31
2018-12-31T04:05:05.282Z,1017.30
2018-12-31T04:06:05.280Z,1017.32
2018-12-31T04:07:05.295Z,1017.27
2018-12-31T04:08:05.268Z,1017.17
2018-12-31T04:09:05.297Z,1017.04
2018-12-31T04:10:05.302Z,1016.91
2018-12-31T04:11:05.223Z,1016.91
2018-12-31T04:12:05.236Z,1016.92
2018-12-31T04:13:05.214Z,1016.94
2018-12-31T04:14:05.189Z,1017.03
2018-12-31T04:15:05.183Z,1016.97
2018-12-31T04:16:05.182Z,1017.03
2018-12-31T04:17:05.155Z,1017.02
2018-12-31T04:18:05.161Z,1017.00
2018-12-31T04:19:05.140Z,1017.04
2018-12-31T04:20:05.132Z,1017.02
2018-12-31T04:21:05.146Z,1017.02
2018-12-31T04:22:05.124Z,1017.11
2018-12-31T04:23:05.124Z,1017.10
2018-12-31T04:24:05.083Z,1017.11
2018-12-31T04:25:05.182Z,1017.09
2018-12-31T04:26:05.076Z,1017.10
2018-12-31T04:27:05.049Z,1017.11
2018-12-31T04:28:05.065Z,1017.14
2018-12-31T04:29:05.054Z,1017.21
2018-12-31T04:30:05.038Z,1017.22
2018-12-31T04:31:05.007Z,1017.25
2018-12-31T04:32:05.003Z,1017.26
2018-12-31T04:33:05.014Z,1017.28
2018-12-31T04:34:04.984Z,1017.31
2018-12-31T04:35:05.021Z,1017.36
2018-12-31T04:36:04.976Z,1017.37
2018-12-31T04:37:04.942Z,1017.39
2018-12-31T04:38:04.937Z,1017.38
2018-12-31T04:39:04.924Z,1017.36
2018-12-31T04:40:04.948Z,1017.29
2018-12-31T04:41:04.940Z,1017.31
2018-12-31T04:42:04.894Z,1017.37
2018-12-31T04:43:04.879Z,1017.35
2018-12-31T04:44:04.874Z,1017.35
2018-12-31T04:45:04.937Z,1017.35
2018-12-31T04:46:04.879Z,1017.36
2018-12-31T04:47:04.855Z,1017.37
2018-12-31T04:48:04.841Z,1017.35
2018-12-31T04:49:04.833Z,1017.30
2018-12-31T04:50:04.852Z,1017.33
2018-12-31T04:51:04.802Z,1017.37
2018-12-31T04:52:04.820Z,1017.33
2018-12-31T04:53:04.778Z,1017.34
2018-12-31T04:54:04.797Z,1017.34
2018-12-31T04:55:04.774Z,1017.31
2018-12-31T04:56:04.790Z,1017.33
2018-12-31T04:57:04.779Z,1017.34
2018-12-31T04:58:04.758Z,1017.34
2018-12-31T04:59:04.709Z,1017.31
2018-12-31T05:00:04.711Z,1017.30
2018-12-31T05:01:04.711Z,1017.30
2018-12-31T05:02:04.671Z,1017.28
2018-12-31T05:03:04.681Z,1017.32
2018-12-31T05:04:04.722Z,1017.32
2018-12-31T05:05:04.748Z,1017.25
2018-12-31T05:06:04.655Z,1017.32
2018-12-31T05:07:04.646Z,1017.32
2018-12-31T05:08:04.629Z,1017.32
2018-12-31T05:09:04.612Z,1017.31
2018-12-31T05:10:04.620Z,1017.29
2018-12-31T05:11:04.671Z,1017.31
2018-12-31T05:12:04.593Z,1017.29
2018-12-31T05:13:04.551Z,1017.23
2018-12-31T05:14:04.582Z,1017.28
2018-12-31T05:15:04.562Z,1017.24
2018-12-31T05:16:04.560Z,1017.17
2018-12-31T05:17:04.550Z,1017.23
2018-12-31T05:18:04.561Z,1017.22
2018-12-31T05:19:04.486Z,1017.24
2018-12-31T05:20:04.505Z,1017.21
2018-12-31T05:21:04.490Z,1017.22
2018-12-31T05:22:04.471Z,1017.20
2018-12-31T05:23:05.413Z,1017.16
2018-12-31T05:24:04.442Z,1017.23
2018-12-31T05:25:04.419Z,1017.17
2018-12-31T05:26:04.426Z,1017.17
2018-12-31T05:27:04.481Z,1017.19
2018-12-31T05:28:04.397Z,1017.18
2018-12-31T05:29:04.420Z,1017.20
2018-12-31T05:30:04.371Z,1017.23
2018-12-31T05:31:04.382Z,1017.19
2018-12-31T05:32:04.350Z,1017.22
2018-12-31T05:33:04.381Z,1017.24
2018-12-31T05:34:04.330Z,1017.27
2018-12-31T05:35:04.355Z,1017.27
2018-12-31T05:36:04.313Z,1017.28
2018-12-31T05:37:04.287Z,1017.34
2018-12-31T05:38:04.419Z,1017.31
2018-12-31T05:39:04.276Z,1017.29
2018-12-31T05:40:04.280Z,1017.26
2018-12-31T05:41:04.267Z,1017.27
2018-12-31T05:42:04.399Z,1017.24
2018-12-31T05:43:04.258Z,1017.29
2018-12-31T05:44:04.227Z,1017.31
2018-12-31T05:45:04.228Z,1017.30
2018-12-31T05:46:04.195Z,1017.34
2018-12-31T05:47:04.195Z,1017.33
2018-12-31T05:48:04.200Z,1017.34
2018-12-31T05:49:04.245Z,1017.36
2018-12-31T05:50:04.156Z,1017.34
2018-12-31T05:51:04.147Z,1017.34
2018-12-31T05:52:04.222Z,1017.38
2018-12-31T05:53:04.143Z,1017.37
2018-12-31T05:54:04.131Z,1017.37
2018-12-31T05:55:04.104Z,1017.37
2018-12-31T05:56:04.096Z,1017.39
2018-12-31T05:57:04.591Z,1017.41
2018-12-31T05:58:04.593Z,1017.40
2018-12-31T05:59:04.107Z,1017.39
2018-12-31T06:00:04.118Z,1017.40
2018-12-31T06:01:04.043Z,1017.38
2018-12-31T06:02:04.038Z,1017.39
2018-12-31T06:03:04.060Z,1017.39
2018-12-31T06:04:04.000Z,1017.39
2018-12-31T06:05:04.050Z,1017.43
2018-12-31T06:06:03.989Z,1017.46
2018-12-31T06:07:04.593Z,1017.47
2018-12-31T06:08:03.987Z,1017.52
2018-12-31T06:09:04.085Z,1017.52
2018-12-31T06:10:03.945Z,1017.49
2018-12-31T06:11:04.161Z,1017.52
2018-12-31T06:12:03.972Z,1017.53
2018-12-31T06:13:03.923Z,1017.53
2018-12-31T06:14:03.899Z,1017.52
2018-12-31T06:15:03.886Z,1017.55
2018-12-31T06:16:03.914Z,1017.51
2018-12-31T06:17:05.194Z,1017.52
2018-12-31T06:18:03.890Z,1017.51
2018-12-31T06:19:03.860Z,1017.48
2018-12-31T06:20:03.833Z,1017.46
2018-12-31T06:21:03.837Z,1017.47
2018-12-31T06:22:03.841Z,1017.48
2018-12-31T06:23:03.916Z,1017.48
2018-12-31T06:24:03.803Z,1017.50
2018-12-31T06:25:04.150Z,1017.56
2018-12-31T06:26:03.786Z,1017.54
2018-12-31T06:27:03.761Z,1017.58
2018-12-31T06:28:03.756Z,1017.52
2018-12-31T06:29:03.752Z,1017.53
2018-12-31T06:30:03.756Z,1017.50
2018-12-31T06:31:03.756Z,1017.54
2018-12-31T06:32:03.755Z,1017.51
2018-12-31T06:33:03.692Z,1017.49
2018-12-31T06:34:03.688Z,1017.54
2018-12-31T06:35:03.730Z,1017.51
2018-12-31T06:36:03.650Z,1017.47
2018-12-31T06:37:04.159Z,1017.50
2018-12-31T06:38:03.662Z,1017.52
2018-12-31T06:39:03.630Z,1017.56
2018-12-31T06:40:03.607Z,1017.56
2018-12-31T06:41:03.593Z,1017.57
2018-12-31T06:42:03.632Z,1017.56
2018-12-31T06:43:03.593Z,1017.54
2018-12-31T06:44:03.589Z,1017.58
2018-12-31T06:45:03.569Z,1017.59
2018-12-31T06:46:03.573Z,1017.54
2018-12-31T06:47:03.572Z,1017.57
2018-12-31T06:48:03.539Z,1017.49
2018-12-31T06:49:03.527Z,1017.46
2018-12-31T06:50:03.504Z,1017.50
2018-12-31T06:51:03.499Z,1017.48
2018-12-31T06:52:03.511Z,1017.51
2018-12-31T06:53:03.550Z,1017.51
2018-12-31T06:54:03.463Z,1017.50
2018-12-31T06:55:03.464Z,1017.48
2018-12-31T06:56:04.108Z,1017.50
2018-12-31T06:57:03.609Z,1017.51
2018-12-31T06:58:04.077Z,1017.52
2018-12-31T06:59:03.425Z,1017.53
2018-12-31T07:00:03.395Z,1017.57
2018-12-31T07:01:03.473Z,1017.59
2018-12-31T07:02:03.437Z,1017.56
2018-12-31T07:03:03.367Z,1017.61
2018-12-31T07:04:04.780Z,1017.60
2018-12-31T07:05:03.361Z,1017.63
2018-12-31T07:06:03.418Z,1017.66
2018-12-31T07:07:03.334Z,1017.66
2018-12-31T07:08:03.324Z,1017.66
2018-12-31T07:09:03.375Z,1017.70
2018-12-31T07:10:03.301Z,1017.72
2018-12-31T07:11:03.320Z,1017.75
2018-12-31T07:12:03.304Z,1017.78
2018-12-31T07:13:03.252Z,1017.80
2018-12-31T07:14:03.258Z,1017.84
2018-12-31T07:15:03.245Z,1017.87
2018-12-31T07:16:03.513Z,1017.87
2018-12-31T07:17:03.264Z,1017.89
2018-12-31T07:18:03.207Z,1017.93
2018-12-31T07:19:03.203Z,1017.88
2018-12-31T07:20:03.278Z,1017.90
2018-12-31T07:21:03.178Z,1017.97
2018-12-31T07:22:03.203Z,1017.95
2018-12-31T07:23:03.149Z,1018.01
2018-12-31T07:24:03.212Z,1017.87
2018-12-31T07:25:03.262Z,1017.88
2018-12-31T07:26:03.544Z,1017.96
2018-12-31T07:27:03.241Z,1017.97
2018-12-31T07:28:03.124Z,1018.05
2018-12-31T07:29:03.085Z,1018.03
2018-12-31T07:30:03.079Z,1018.05
2018-12-31T07:31:03.070Z,1018.06
2018-12-31T07:32:03.139Z,1018.05
2018-12-31T07:33:03.068Z,1018.04
2018-12-31T07:34:03.137Z,1018.07
2018-12-31T07:35:03.058Z,1018.07
2018-12-31T07:36:03.034Z,1018.07
2018-12-31T07:37:03.091Z,1018.14
2018-12-31T07:38:03.046Z,1018.17
2018-12-31T07:39:02.990Z,1018.19
2018-12-31T07:40:03.044Z,1018.15
2018-12-31T07:41:02.983Z,1018.19
2018-12-31T07:42:02.950Z,1018.20
2018-12-31T07:43:02.933Z,1018.17
2018-12-31T07:44:03.284Z,1018.23
2018-12-31T07:45:03.561Z,1018.19
2018-12-31T07:46:02.907Z,1018.24
2018-12-31T07:47:02.926Z,1018.29
2018-12-31T07:48:03.581Z,1018.31
2018-12-31T07:49:03.564Z,1018.31
2018-12-31T07:50:02.868Z,1018.34
2018-12-31T07:51:03.604Z,1018.34
2018-12-31T07:52:02.892Z,1018.34
2018-12-31T07:53:02.821Z,1018.37
2018-12-31T07:54:02.822Z,1018.38
2018-12-31T07:55:02.834Z,1018.38
2018-12-31T07:56:02.790Z,1018.37
2018-12-31T07:57:02.832Z,1018.40
2018-12-31T07:58:02.789Z,1018.40
2018-12-31T07:59:02.788Z,1018.42
2018-12-31T08:00:02.757Z,1018.47
2018-12-31T08:01:02.759Z,1018.47
2018-12-31T08:02:02.750Z,1018.48
2018-12-31T08:03:02.715Z,1018.47
2018-12-31T08:04:02.697Z,1018.49
2018-12-31T08:05:02.706Z,1018.49
2018-12-31T08:06:02.797Z,1018.48
2018-12-31T08:07:02.693Z,1018.50
2018-12-31T08:08:02.776Z,1018.48
2018-12-31T08:09:02.666Z,1018.48
2018-12-31T08:10:02.643Z,1018.48
2018-12-31T08:11:02.668Z,1018.48
2018-12-31T08:12:02.633Z,1018.47
2018-12-31T08:13:02.649Z,1018.47
2018-12-31T08:14:02.625Z,1018.53
2018-12-31T08:15:02.636Z,1018.50
2018-12-31T08:16:02.678Z,1018.53
2018-12-31T08:17:02.573Z,1018.49
2018-12-31T08:18:02.597Z,1018.50
2018-12-31T08:19:02.570Z,1018.51
2018-12-31T08:20:02.568Z,1018.50
2018-12-31T08:21:02.570Z,1018.50
2018-12-31T08:22:02.532Z,1018.50
2018-12-31T08:23:02.542Z,1018.48
2018-12-31T08:24:02.498Z,1018.51
2018-12-31T08:25:02.569Z,1018.52
2018-12-31T08:26:02.466Z,1018.56
2018-12-31T08:27:02.460Z,1018.59
2018-12-31T08:28:02.581Z,1018.54
2018-12-31T08:29:02.445Z,1018.56
2018-12-31T08:30:02.428Z,1018.54
2018-12-31T08:31:02.413Z,1018.54
2018-12-31T08:32:02.589Z,1018.52
2018-12-31T08:33:02.450Z,1018.53
2018-12-31T08:34:02.406Z,1018.56
2018-12-31T08:35:02.383Z,1018.56
2018-12-31T08:36:02.353Z,1018.56
2018-12-31T08:37:02.382Z,1018.59
2018-12-31T08:38:02.337Z,1018.63
2018-12-31T08:39:02.606Z,1018.63
2018-12-31T08:40:02.411Z,1018.65
2018-12-31T08:41:02.316Z,1018.60
2018-12-31T08:42:02.311Z,1018.61
2018-12-31T08:43:02.291Z,1018.61
2018-12-31T08:44:02.297Z,1018.58
2018-12-31T08:45:02.275Z,1018.65
2018-12-31T08:46:02.249Z,1018.64
2018-12-31T08:47:02.258Z,1018.63
2018-12-31T08:48:02.221Z,1018.59
2018-12-31T08:49:02.241Z,1018.62
2018-12-31T08:50:03.337Z,1018.58
2018-12-31T08:51:02.309Z,1018.56
2018-12-31T08:52:02.451Z,1018.59
2018-12-31T08:53:02.187Z,1018.59
2018-12-31T08:54:02.201Z,1018.61
2018-12-31T08:55:02.242Z,1018.60
2018-12-31T08:56:02.134Z,1018.63
2018-12-31T08:57:02.162Z,1018.62
2018-12-31T08:58:02.119Z,1018.65
2018-12-31T08:59:02.125Z,1018.62
2018-12-31T09:00:02.101Z,1018.61
2018-12-31T09:01:02.089Z,1018.53
2018-12-31T09:02:02.079Z,1018.59
2018-12-31T09:03:02.063Z,1018.53
2018-12-31T09:04:02.102Z,1018.60
2018-12-31T09:05:02.050Z,1018.54
2018-12-31T09:06:02.041Z,1018.52
2018-12-31T09:07:02.063Z,1018.48
2018-12-31T09:08:02.085Z,1018.50
2018-12-31T09:09:02.084Z,1018.51
2018-12-31T09:10:01.985Z,1018.54
2018-12-31T09:11:02.074Z,1018.54
2018-12-31T09:12:01.970Z,1018.51
2018-12-31T09:13:01.956Z,1018.48
2018-12-31T09:14:01.946Z,1018.49
2018-12-31T09:15:01.963Z,1018.50
2018-12-31T09:16:01.955Z,1018.56
2018-12-31T09:17:01.917Z,1018.59
2018-12-31T09:18:01.900Z,1018.58
2018-12-31T09:19:01.892Z,1018.56
2018-12-31T09:20:01.905Z,1018.58
2018-12-31T09:21:01.902Z,1018.61
2018-12-31T09:22:01.917Z,1018.65
2018-12-31T09:23:01.919Z,1018.67
2018-12-31T09:24:01.925Z,1018.69
2018-12-31T09:25:01.882Z,1018.70
2018-12-31T09:26:01.937Z,1018.68
2018-12-31T09:27:02.157Z,1018.68
2018-12-31T09:28:01.956Z,1018.71
2018-12-31T09:29:01.832Z,1018.69
2018-12-31T09:30:01.836Z,1018.74
2018-12-31T09:31:01.763Z,1018.80
2018-12-31T09:32:01.862Z,1018.80
2018-12-31T09:33:01.866Z,1018.79
2018-12-31T09:34:01.763Z,1018.86
2018-12-31T09:35:01.969Z,1018.86
2018-12-31T09:36:01.977Z,1018.77
2018-12-31T09:37:01.754Z,1018.76
2018-12-31T09:38:01.698Z,1018.72
2018-12-31T09:39:01.994Z,1018.75
2018-12-31T09:40:01.699Z,1018.76
2018-12-31T09:41:02.014Z,1018.73
2018-12-31T09:42:01.939Z,1018.74
2018-12-31T09:43:01.990Z,1018.73
2018-12-31T09:44:01.784Z,1018.75
2018-12-31T09:45:02.072Z,1018.68
2018-12-31T09:46:02.025Z,1018.70
2018-12-31T09:47:02.039Z,1018.76
2018-12-31T09:48:01.683Z,1018.80
2018-12-31T09:49:01.562Z,1018.81
2018-12-31T09:50:01.569Z,1018.80
2018-12-31T09:51:01.550Z,1018.80
2018-12-31T09:52:01.543Z,1018.75
2018-12-31T09:53:01.513Z,1018.75
2018-12-31T09:54:01.497Z,1018.77
2018-12-31T09:55:01.545Z,1018.79
2018-12-31T09:56:01.489Z,1018.78
2018-12-31T09:57:01.486Z,1018.80
2018-12-31T09:58:01.469Z,1018.80
2018-12-31T09:59:01.456Z,1018.73
2018-12-31T10:00:01.440Z,1018.75
2018-12-31T10:01:01.434Z,1018.80
2018-12-31T10:02:01.452Z,1018.74
2018-12-31T10:03:01.411Z,1018.75
2018-12-31T10:04:01.406Z,1018.74
2018-12-31T10:05:01.391Z,1018.72
2018-12-31T10:06:01.388Z,1018.73
2018-12-31T10:07:01.380Z,1018.66
2018-12-31T10:08:01.413Z,1018.71
2018-12-31T10:09:01.346Z,1018.69
2018-12-31T10:10:01.381Z,1018.63
2018-12-31T10:11:01.318Z,1018.68
2018-12-31T10:12:01.305Z,1018.64
2018-12-31T10:13:01.310Z,1018.65
2018-12-31T10:14:01.315Z,1018.66
2018-12-31T10:15:01.291Z,1018.62
2018-12-31T10:16:01.276Z,1018.65
2018-12-31T10:17:01.297Z,1018.66
2018-12-31T10:18:01.263Z,1018.71
2018-12-31T10:19:01.232Z,1018.67
2018-12-31T10:20:01.218Z,1018.66
2018-12-31T10:21:01.215Z,1018.67
2018-12-31T10:22:01.205Z,1018.64
2018-12-31T10:23:01.199Z,1018.68
2018-12-31T10:24:01.187Z,1018.62
2018-12-31T10:25:01.187Z,1018.65
2018-12-31T10:26:01.153Z,1018.66
2018-12-31T10:27:01.157Z,1018.64
2018-12-31T10:28:01.149Z,1018.64
2018-12-31T10:29:01.144Z,1018.64
2018-12-31T10:30:01.115Z,1018.64
2018-12-31T10:31:01.114Z,1018.65
2018-12-31T10:32:01.091Z,1018.63
2018-12-31T10:33:01.090Z,1018.68
2018-12-31T10:34:01.075Z,1018.62
2018-12-31T10:35:01.064Z,1018.65
2018-12-31T10:36:01.051Z,1018.60
2018-12-31T10:37:01.047Z,1018.65
2018-12-31T10:38:01.080Z,1018.65
2018-12-31T10:39:01.074Z,1018.69
2018-12-31T10:40:01.012Z,1018.65
2018-12-31T10:41:01.219Z,1018.66
2018-12-31T10:42:01.014Z,1018.68
2018-12-31T10:43:01.018Z,1018.68
2018-12-31T10:44:00.970Z,1018.68
2018-12-31T10:45:01.049Z,1018.66
2018-12-31T10:46:00.936Z,1018.65
2018-12-31T10:47:00.943Z,1018.63
2018-12-31T10:48:00.920Z,1018.65
2018-12-31T10:49:00.924Z,1018.69
2018-12-31T10:50:00.910Z,1018.68
2018-12-31T10:51:00.890Z,1018.67
2018-12-31T10:52:00.901Z,1018.67
2018-12-31T10:53:00.926Z,1018.66
2018-12-31T10:54:00.856Z,1018.62
2018-12-31T10:55:00.847Z,1018.60
2018-12-31T10:56:00.830Z,1018.61
2018-12-31T10:57:00.817Z,1018.59
2018-12-31T10:58:00.809Z,1018.60
2018-12-31T10:59:00.801Z,1018.64
2018-12-31T11:00:00.796Z,1018.61
2018-12-31T11:01:00.778Z,1018.64
2018-12-31T11:02:00.768Z,1018.65
2018-12-31T11:03:00.746Z,1018.61
2018-12-31T11:04:00.739Z,1018.65
2018-12-31T11:05:00.767Z,1018.60
2018-12-31T11:06:00.723Z,1018.57
2018-12-31T11:07:00.714Z,1018.55
2018-12-31T11:08:00.697Z,1018.57
2018-12-31T11:09:00.694Z,1018.54
2018-12-31T11:10:00.690Z,1018.55
2018-12-31T11:11:00.678Z,1018.58
2018-12-31T11:12:00.653Z,1018.58
2018-12-31T11:13:00.643Z,1018.54
2018-12-31T11:14:00.638Z,1018.54
2018-12-31T11:15:00.645Z,1018.53
2018-12-31T11:16:00.631Z,1018.53
2018-12-31T11:17:00.602Z,1018.56
2018-12-31T11:18:00.581Z,1018.55
2018-12-31T11:19:00.582Z,1018.54
2018-12-31T11:20:00.577Z,1018.52
2018-12-31T11:21:00.557Z,1018.53
2018-12-31T11:22:00.545Z,1018.56
2018-12-31T11:23:00.548Z,1018.49
2018-12-31T11:24:00.530Z,1018.51
2018-12-31T11:25:00.522Z,1018.47
2018-12-31T11:26:00.508Z,1018.41
2018-12-31T11:27:00.491Z,1018.39
2018-12-31T11:28:00.491Z,1018.40
2018-12-31T11:29:00.462Z,1018.40
2018-12-31T11:30:00.468Z,1018.38
2018-12-31T11:31:00.444Z,1018.39
2018-12-31T11:32:00.439Z,1018.37
2018-12-31T11:33:00.432Z,1018.33
2018-12-31T11:34:00.415Z,1018.36
2018-12-31T11:35:00.419Z,1018.43
2018-12-31T11:36:00.397Z,1018.38
2018-12-31T11:37:00.381Z,1018.41
2018-12-31T11:38:00.392Z,1018.42
2018-12-31T11:39:00.362Z,1018.41
2018-12-31T11:40:00.381Z,1018.37
2018-12-31T11:41:00.353Z,1018.34
2018-12-31T11:42:00.321Z,1018.31
2018-12-31T11:43:00.321Z,1018.30
2018-12-31T11:44:00.301Z,1018.30
2018-12-31T11:45:00.294Z,1018.32
2018-12-31T11:46:00.297Z,1018.29
2018-12-31T11:47:00.274Z,1018.29
2018-12-31T11:48:00.254Z,1018.32
2018-12-31T11:49:00.247Z,1018.28
2018-12-31T11:50:00.237Z,1018.24
2018-12-31T11:51:00.257Z,1018.25
2018-12-31T11:52:00.241Z,1018.24
2018-12-31T11:53:00.201Z,1018.22
2018-12-31T11:54:00.195Z,1018.20
2018-12-31T11:55:00.250Z,1018.23
2018-12-31T11:56:00.168Z,1018.17
2018-12-31T11:57:00.174Z,1018.15
2018-12-31T11:58:00.182Z,1018.18
2018-12-31T11:59:00.141Z,1018.20
2018-12-31T12:00:00.179Z,1018.15
2018-12-31T12:01:00.145Z,1018.13
2018-12-31T12:02:00.111Z,1018.07
2018-12-31T12:03:00.105Z,1018.06
2018-12-31T12:04:00.101Z,1018.11
2018-12-31T12:05:00.095Z,1018.12